KOSH/OSH METAR and TAF weather

Enter ICAO airport designator
Station Type Date Time Source
KOSH METAR 2019/05/25 09:06 UTC NOAA

KOSH 250906Z AUTO 00000KT 3SM VCTS -RA BR SCT035 SCT060 BKN075 17/16 A2978 RMK AO2 LTG DSNT NE AND SE TSE06 P0004 T01670156


Station Type Date Time Source
KOSH Decoded METAR 2019/05/25 09:06 UTC NOAA

WITTMAN REGIONAL AIRPORT, WI, United States (KOSH) 43-58N 88-33W 248M
May 25, 2019 - 05:06 AM EDT / 2019.05.25 0906 UTC
Wind: Calm:0
Visibility: 3 mile(s):0
Sky conditions: mostly cloudy
Weather: thunder in the vicinity; light rain; mist; Lightning observed
Precipitation last hour: 0.04 inches
Temperature: 62.1 F (16.7 C)
Dew Point: 60.1 F (15.6 C)
Relative Humidity: 93%
Pressure (altimeter): 29.78 in. Hg (1008 hPa)
ob: KOSH 250906Z AUTO 00000KT 3SM VCTS -RA BR SCT035 SCT060 BKN075 17/16 A2978 RMK AO2 LTG DSNT NE AND SE TSE06 P0004 T01670156
cycle: 9

Station Type Date Time Source
KOSH TAF 2018/10/11 06:22 UTC NOAA

TAF KOSH 110520Z 1106/1206 25016G28KT P6SM BKN015
FM111300 27017G28KT P6SM BKN020
FM111400 27018G29KT P6SM BKN015
FM112100 29018G30KT P6SM BKN050
FM120000 29013G24KT P6SM SCT120

Example: see airport list